Time;durP1;ratioP1;P1;durP2;ratioP2;P2;SDS_P1;SDS_P2;PMS_P1;PMS_P2;Temp;Humidity;BMP_temperature;BMP_pressure;BME280_temperature;BME280_humidity;BME280_pressure;Samples;Min_cycle;Max_cycle;Signal;HPM_P1;HPM_P2
2023/11/11 00:00:36;;;;;;;1.40;1.30;;;;;;;6.97;100.00;95126.81;106823;1278;138351;-86
2023/11/11 00:03:23;;;;;;;2.70;1.30;;;;;;;6.98;100.00;95127.49;107176;1276;25472;-87
2023/11/11 00:05:50;;;;;;;1.60;1.00;;;;;;;6.98;100.00;95124.20;107097;1277;137887;-87
2023/11/11 00:08:17;;;;;;;1.20;1.10;;;;;;;6.99;100.00;95127.06;107257;1276;22541;-86
2023/11/11 00:10:43;;;;;;;1.50;1.10;;;;;;;6.98;100.00;95125.86;107313;1277;24183;-86
2023/11/11 00:13:09;;;;;;;2.40;1.20;;;;;;;6.95;100.00;95133.75;107024;1277;137966;-87
2023/11/11 00:15:35;;;;;;;1.80;1.30;;;;;;;6.95;100.00;95133.95;107212;1273;24295;-87
2023/11/11 00:18:02;;;;;;;2.30;1.00;;;;;;;6.92;100.00;95133.34;107145;1277;138309;-87
2023/11/11 00:20:28;;;;;;;1.50;1.40;;;;;;;6.91;100.00;95131.91;107219;1277;24277;-87
2023/11/11 00:22:54;;;;;;;1.90;1.20;;;;;;;6.91;100.00;95131.23;107164;1276;138020;-86
2023/11/11 00:25:22;;;;;;;1.30;1.00;;;;;;;6.90;100.00;95131.91;107260;1272;24409;-87
2023/11/11 00:27:49;;;;;;;1.20;0.80;;;;;;;6.90;100.00;95130.20;107307;1276;24195;-87
2023/11/11 00:30:15;;;;;;;1.30;0.90;;;;;;;6.90;100.00;95129.52;107188;1262;138227;-87
2023/11/11 00:32:44;;;;;;;1.60;1.00;;;;;;;6.90;100.00;95127.10;107195;1276;22996;-86
2023/11/11 00:35:11;;;;;;;1.50;1.10;;;;;;;6.90;100.00;95126.39;107143;1276;138015;-87
2023/11/11 00:37:37;;;;;;;0.90;0.80;;;;;;;6.90;100.00;95130.43;107252;1269;22527;-87
2023/11/11 00:40:04;;;;;;;2.80;1.00;;;;;;;6.88;100.00;95129.55;107237;1277;25589;-87
2023/11/11 00:42:31;;;;;;;0.70;0.60;;;;;;;6.88;100.00;95129.43;107116;1276;138298;-87
2023/11/11 00:44:56;;;;;;;1.80;1.10;;;;;;;6.87;100.00;95130.38;107244;1276;24255;-87
2023/11/11 00:47:22;;;;;;;1.00;0.90;;;;;;;6.86;100.00;95126.88;107168;1277;138757;-87
2023/11/11 00:49:51;;;;;;;0.90;0.70;;;;;;;6.86;100.00;95131.88;107224;1274;24200;-87
2023/11/11 00:52:17;;;;;;;1.00;0.80;;;;;;;6.85;100.00;95124.97;107288;1270;25211;-87
2023/11/11 00:54:43;;;;;;;2.70;0.60;;;;;;;6.84;100.00;95125.84;107145;1277;138681;-87
2023/11/11 00:57:09;;;;;;;1.40;0.80;;;;;;;6.83;100.00;95125.39;107262;1276;24244;-87
2023/11/11 00:59:35;;;;;;;1.80;0.70;;;;;;;6.84;100.00;95127.91;107162;1262;138578;-87
2023/11/11 01:02:01;;;;;;;1.80;0.80;;;;;;;6.84;100.00;95129.45;107260;1277;23405;-87
2023/11/11 01:04:27;;;;;;;2.30;0.70;;;;;;;6.85;100.00;95129.81;107242;1273;22545;-87
2023/11/11 01:06:53;;;;;;;0.90;0.60;;;;;;;6.87;100.00;95129.11;107085;1274;137948;-87
2023/11/11 01:09:19;;;;;;;3.60;0.90;;;;;;;6.86;100.00;95126.48;106980;1279;24228;-87
2023/11/11 01:11:47;;;;;;;0.60;0.60;;;;;;;6.84;100.00;95129.09;106876;1278;137878;-87
2023/11/11 01:14:13;;;;;;;0.60;0.60;;;;;;;6.83;100.00;95129.59;107201;1276;22537;-87
2023/11/11 01:16:39;;;;;;;1.10;0.60;;;;;;;6.81;100.00;95128.05;110330;1277;22350;-88
2023/11/11 01:19:05;;;;;;;0.80;0.70;;;;;;;6.82;100.00;95125.36;110209;1277;138843;-88
2023/11/11 01:21:31;;;;;;;0.80;0.70;;;;;;;6.83;100.00;95119.41;110120;1278;22894;-86
2023/11/11 01:23:57;;;;;;;0.70;0.40;;;;;;;6.84;100.00;95115.48;110245;1277;138678;-86
2023/11/11 01:26:26;;;;;;;0.70;0.50;;;;;;;6.84;100.00;95111.50;110330;1276;23057;-86
2023/11/11 01:28:51;;;;;;;0.50;0.50;;;;;;;6.85;100.00;95110.94;110375;1276;22211;-85
2023/11/11 01:31:17;;;;;;;0.70;0.50;;;;;;;6.83;100.00;95108.67;110045;1277;139405;-86
2023/11/11 01:33:43;;;;;;;0.50;0.40;;;;;;;6.81;100.00;95105.14;108643;1269;22554;-85
2023/11/11 01:36:10;;;;;;;1.20;0.70;;;;;;;6.81;100.00;95100.38;107159;1255;139296;-86
2023/11/11 01:38:35;;;;;;;1.40;0.60;;;;;;;6.84;100.00;95101.77;107213;1277;24270;-86
2023/11/11 01:41:04;;;;;;;0.80;0.50;;;;;;;6.85;100.00;95100.42;107173;1268;138915;-86
2023/11/11 01:43:30;;;;;;;1.40;0.60;;;;;;;6.84;100.00;95091.91;110357;1276;22686;-87
2023/11/11 01:45:59;;;;;;;0.90;0.50;;;;;;;6.82;100.00;95092.63;110087;1277;23234;-87
2023/11/11 01:48:24;;;;;;;1.20;0.60;;;;;;;6.83;100.00;95091.14;110062;1277;140939;-87
2023/11/11 01:50:50;;;;;;;1.20;0.60;;;;;;;6.84;100.00;95090.36;110055;1275;22147;-86
2023/11/11 01:53:16;;;;;;;0.60;0.50;;;;;;;6.84;100.00;95090.01;108763;1275;138286;-86
2023/11/11 01:55:42;;;;;;;0.80;0.60;;;;;;;6.85;100.00;95086.40;106993;1278;22550;-86
2023/11/11 01:58:09;;;;;;;1.90;1.20;;;;;;;6.86;100.00;95084.54;107294;1276;24269;-86
2023/11/11 02:00:37;;;;;;;1.30;0.50;;;;;;;6.85;100.00;95085.17;107105;1277;138039;-86
2023/11/11 02:03:03;;;;;;;0.60;0.40;;;;;;;6.85;100.00;95082.98;109360;1276;22615;-86
2023/11/11 02:05:29;;;;;;;0.60;0.40;;;;;;;6.85;100.00;95079.56;107126;1267;138655;-86
2023/11/11 02:07:57;;;;;;;1.70;0.70;;;;;;;6.84;100.00;95082.90;107248;1276;22540;-86
2023/11/11 02:10:23;;;;;;;0.40;0.40;;;;;;;6.84;100.00;95073.71;107868;1277;23966;-86
2023/11/11 02:12:49;;;;;;;0.60;0.40;;;;;;;6.82;100.00;95072.58;107160;1271;138018;-86
2023/11/11 02:15:15;;;;;;;0.90;0.40;;;;;;;6.81;100.00;95074.84;107265;1277;23317;-86
2023/11/11 02:17:41;;;;;;;0.90;0.40;;;;;;;6.82;100.00;95072.34;107173;1277;138450;-86
2023/11/11 02:20:11;;;;;;;0.50;0.50;;;;;;;6.82;100.00;95072.54;107256;1262;22773;-86
2023/11/11 02:22:40;;;;;;;0.40;0.40;;;;;;;6.81;100.00;95071.66;107237;1276;22532;-86
2023/11/11 02:25:08;;;;;;;0.50;0.40;;;;;;;6.79;100.00;95065.61;106998;1276;139520;-86
2023/11/11 02:27:35;;;;;;;0.60;0.40;;;;;;;6.78;100.00;95061.64;110173;1277;22242;-87
2023/11/11 02:30:03;;;;;;;1.10;0.40;;;;;;;6.78;100.00;95066.99;110228;1276;138559;-87
2023/11/11 02:32:31;;;;;;;0.60;0.40;;;;;;;6.81;100.00;95068.86;110070;1276;22287;-87
2023/11/11 02:34:58;;;;;;;0.50;0.40;;;;;;;6.83;100.00;95078.30;109459;1277;138957;-86
2023/11/11 02:37:24;;;;;;;0.60;0.60;;;;;;;6.84;100.00;95081.79;107252;1272;24274;-86
2023/11/11 02:39:50;;;;;;;1.40;1.10;;;;;;;6.85;100.00;95084.53;107031;1277;25470;-86
2023/11/11 02:42:16;;;;;;;0.90;0.70;;;;;;;6.85;100.00;95081.59;107183;1276;138153;-86
2023/11/11 02:44:42;;;;;;;0.80;0.70;;;;;;;6.84;100.00;95077.98;107262;1277;23896;-86
2023/11/11 02:47:07;;;;;;;1.40;1.10;;;;;;;6.84;100.00;95079.96;107113;1277;138676;-86
2023/11/11 02:49:33;;;;;;;1.70;1.30;;;;;;;6.85;100.00;95078.48;107099;1276;25373;-86
2023/11/11 02:52:00;;;;;;;1.10;0.90;;;;;;;6.86;100.00;95071.83;107281;1276;22644;-86
2023/11/11 02:54:26;;;;;;;0.70;0.60;;;;;;;6.86;100.00;95074.13;107210;1276;138041;-86
2023/11/11 02:56:52;;;;;;;0.90;0.60;;;;;;;6.85;100.00;95071.42;107308;1267;22580;-86
2023/11/11 02:59:18;;;;;;;1.20;0.60;;;;;;;6.86;100.00;95069.00;107193;1273;139250;-86
2023/11/11 03:01:44;;;;;;;0.80;0.60;;;;;;;6.86;100.00;95069.23;107035;1276;23151;-86
2023/11/11 03:04:14;;;;;;;1.20;0.50;;;;;;;6.86;100.00;95069.80;107244;1276;23874;-86
2023/11/11 03:06:43;;;;;;;0.80;0.60;;;;;;;6.84;100.00;95065.90;107166;1274;137997;-85
2023/11/11 03:09:12;;;;;;;1.10;0.40;;;;;;;6.84;100.00;95067.52;107073;1276;22533;-86
2023/11/11 03:11:38;;;;;;;0.70;0.50;;;;;;;6.83;100.00;95062.78;106828;1278;138322;-86
2023/11/11 03:14:06;;;;;;;0.90;0.70;;;;;;;6.83;100.00;95063.75;106997;1279;25386;-86
2023/11/11 03:16:36;;;;;;;1.20;0.60;;;;;;;6.82;100.00;95056.62;109987;1269;22660;-86
2023/11/11 03:19:03;;;;;;;0.80;0.60;;;;;;;6.81;100.00;95055.41;107191;1268;138698;-87
2023/11/11 03:21:30;;;;;;;1.20;0.70;;;;;;;6.82;100.00;95050.01;107304;1273;24245;-86
2023/11/11 03:23:56;;;;;;;0.70;0.60;;;;;;;6.81;100.00;95051.72;107180;1276;137967;-86
2023/11/11 03:26:25;;;;;;;0.60;0.60;;;;;;;6.80;100.00;95048.98;107272;1276;24370;-86
2023/11/11 03:28:51;;;;;;;0.60;0.60;;;;;;;6.82;100.00;95047.55;107269;1277;22950;-86
2023/11/11 03:31:17;;;;;;;1.00;0.90;;;;;;;6.84;100.00;95047.70;107118;1277;138304;-86
2023/11/11 03:33:43;;;;;;;0.90;0.80;;;;;;;6.84;100.00;95050.23;107284;1272;22553;-87
2023/11/11 03:36:09;;;;;;;1.50;1.00;;;;;;;6.82;100.00;95049.81;107059;1277;138197;-86
2023/11/11 03:38:35;;;;;;;1.80;1.60;;;;;;;6.82;100.00;95047.07;107113;1276;22531;-87
2023/11/11 03:41:01;;;;;;;2.60;2.10;;;;;;;6.83;100.00;95041.89;107181;1273;139024;-86
2023/11/11 03:43:27;;;;;;;1.10;1.00;;;;;;;6.83;100.00;95038.50;107209;1277;24387;-87
2023/11/11 03:45:53;;;;;;;1.30;0.70;;;;;;;6.82;100.00;95034.36;107252;1272;22533;-87
2023/11/11 03:48:19;;;;;;;1.10;0.70;;;;;;;6.80;100.00;95034.44;107144;1267;138359;-86
2023/11/11 03:50:45;;;;;;;1.30;0.80;;;;;;;6.79;100.00;95027.27;107216;1276;22559;-87
2023/11/11 03:53:11;;;;;;;1.10;0.70;;;;;;;6.79;100.00;95022.15;107160;1265;138191;-87
2023/11/11 03:55:37;;;;;;;1.80;1.30;;;;;;;6.80;100.00;95023.59;107006;1277;22544;-86
2023/11/11 03:58:03;;;;;;;1.30;0.90;;;;;;;6.81;100.00;95025.50;107319;1277;22506;-87
2023/11/11 04:00:29;;;;;;;1.20;0.90;;;;;;;6.81;100.00;95026.85;107145;1277;137958;-87
2023/11/11 04:02:55;;;;;;;0.90;0.70;;;;;;;6.81;100.00;95027.41;107225;1277;22623;-86
2023/11/11 04:05:21;;;;;;;1.10;0.90;;;;;;;6.83;100.00;95026.98;107155;1273;138750;-87
2023/11/11 04:07:47;;;;;;;1.20;0.80;;;;;;;6.86;100.00;95026.46;107334;1276;23873;-87
2023/11/11 04:10:17;;;;;;;1.50;0.90;;;;;;;6.90;100.00;95024.61;107247;1276;22664;-87
2023/11/11 04:12:44;;;;;;;2.00;1.50;;;;;;;6.94;100.00;95020.80;107165;1277;138193;-87
2023/11/11 04:15:10;;;;;;;1.40;1.00;;;;;;;6.98;100.00;95014.70;110353;1268;22205;-87
2023/11/11 04:17:42;;;;;;;0.70;0.60;;;;;;;7.02;100.00;95017.99;110244;1262;139502;-87
2023/11/11 04:20:11;;;;;;;;;;;;;;;7.06;100.00;95017.64;110324;1270;22458;-87
2023/11/11 04:22:40;;;;;;;0.90;0.80;;;;;;;7.12;100.00;95016.90;110241;1267;22893;-88
2023/11/11 04:25:07;;;;;;;1.30;1.00;;;;;;;7.20;100.00;95016.11;110040;1277;138792;-87
2023/11/11 04:27:33;;;;;;;1.20;0.90;;;;;;;7.29;100.00;95011.00;110181;1278;22311;-88
2023/11/11 04:29:59;;;;;;;1.80;0.90;;;;;;;7.35;100.00;95009.04;107197;1278;138248;-87
2023/11/11 04:32:26;;;;;;;1.10;1.00;;;;;;;7.39;100.00;95006.98;107069;1277;22548;-87
2023/11/11 04:34:52;;;;;;;0.90;0.80;;;;;;;7.35;100.00;95006.81;107253;1277;23510;-87
2023/11/11 04:37:18;;;;;;;1.90;0.80;;;;;;;7.32;100.00;95008.39;107278;1276;138111;-87
2023/11/11 04:39:47;;;;;;;1.40;1.00;;;;;;;7.34;100.00;95006.45;107229;1275;22645;-87
2023/11/11 04:42:16;;;;;;;1.70;1.30;;;;;;;7.38;100.00;95004.16;107174;1270;138122;-86
2023/11/11 04:44:42;;;;;;;1.30;0.80;;;;;;;7.40;100.00;94997.23;107245;1277;23272;-87
2023/11/11 04:47:09;;;;;;;0.90;0.80;;;;;;;7.40;100.00;95000.10;107137;1277;141001;-86
2023/11/11 04:49:37;;;;;;;1.00;0.90;;;;;;;7.43;100.00;95004.08;110341;1276;22219;-87
2023/11/11 04:52:06;;;;;;;1.60;1.00;;;;;;;7.46;100.00;95006.58;110356;1272;22222;-87
2023/11/11 04:54:32;;;;;;;1.90;1.20;;;;;;;7.48;100.00;95005.84;107193;1275;138688;-88
2023/11/11 04:56:59;;;;;;;1.90;0.90;;;;;;;7.52;100.00;95005.23;107090;1277;22533;-86
2023/11/11 04:59:26;;;;;;;1.50;1.10;;;;;;;7.52;100.00;95007.73;107134;1271;138353;-87
2023/11/11 05:01:53;;;;;;;1.60;1.10;;;;;;;7.54;100.00;95009.84;107029;1257;22590;-87
2023/11/11 05:04:23;;;;;;;1.30;0.90;;;;;;;7.64;100.00;95011.67;107269;1276;22657;-86
2023/11/11 05:06:49;;;;;;;1.30;0.80;;;;;;;7.71;100.00;95009.55;107118;1262;138358;-87
2023/11/11 05:09:24;;;;;;;2.80;0.90;;;;;;;7.75;100.00;95012.16;107254;1277;22566;-87
2023/11/11 05:11:50;;;;;;;14.00;3.20;;;;;;;7.82;100.00;95014.69;107175;1276;139099;-87
2023/11/11 05:14:18;;;;;;;2.60;1.40;;;;;;;7.93;100.00;95018.30;106933;1277;22547;-87
2023/11/11 05:16:50;;;;;;;2.10;1.40;;;;;;;7.99;100.00;95019.96;107235;1277;22579;-87
2023/11/11 05:19:17;;;;;;;1.50;1.30;;;;;;;8.03;100.00;95020.80;107956;1276;138914;-87
2023/11/11 05:21:43;;;;;;;6.20;1.30;;;;;;;8.10;100.00;95014.69;108862;1272;24383;-87
2023/11/11 05:24:10;;;;;;;1.90;1.30;;;;;;;8.16;100.00;95018.65;107204;1276;138246;-87
2023/11/11 05:26:40;;;;;;;2.10;1.30;;;;;;;8.17;100.00;95019.98;107255;1276;25413;-87
2023/11/11 05:29:06;;;;;;;1.70;1.40;;;;;;;8.16;100.00;95025.86;110207;1277;138824;-87
2023/11/11 05:31:33;;;;;;;3.30;1.80;;;;;;;8.22;100.00;95029.47;110152;1277;22207;-87
2023/11/11 05:33:59;;;;;;;6.20;4.30;;;;;;;8.26;100.00;95024.67;110186;1276;22383;-87
2023/11/11 05:36:26;;;;;;;3.50;3.00;;;;;;;8.29;100.00;95028.09;110196;1275;137565;-87
2023/11/11 05:38:53;;;;;;;3.30;3.00;;;;;;;8.27;100.00;95029.80;108757;1270;22674;-87
2023/11/11 05:41:19;;;;;;;4.80;3.90;;;;;;;8.24;100.00;95034.99;106963;1269;138507;-87
2023/11/11 05:43:45;;;;;;;4.20;3.80;;;;;;;8.18;100.00;95035.80;107291;1277;25313;-86
2023/11/11 05:46:12;;;;;;;3.80;3.30;;;;;;;8.20;100.00;95037.59;107093;1272;22540;-86
2023/11/11 05:48:44;;;;;;;4.10;3.70;;;;;;;8.19;100.00;95041.14;107041;1276;138256;-86
2023/11/11 05:51:11;;;;;;;3.80;3.40;;;;;;;8.15;100.00;95046.47;107328;1276;24210;-87
2023/11/11 05:53:36;;;;;;;4.20;3.20;;;;;;;8.14;100.00;95046.59;106977;1278;138711;-86
2023/11/11 05:56:04;;;;;;;4.20;3.80;;;;;;;8.17;100.00;95046.95;107198;1277;22556;-87
2023/11/11 05:58:29;;;;;;;5.50;3.90;;;;;;;8.20;100.00;95043.39;107275;1277;22646;-86
2023/11/11 06:00:55;;;;;;;5.00;4.10;;;;;;;8.26;100.00;95043.11;107166;1270;138503;-87
2023/11/11 06:03:22;;;;;;;4.20;3.60;;;;;;;8.24;100.00;95045.50;107288;1265;22634;-87
2023/11/11 06:05:48;;;;;;;4.00;2.20;;;;;;;8.23;100.00;95048.20;107151;1276;138135;-87
2023/11/11 06:08:14;;;;;;;2.90;2.40;;;;;;;8.21;100.00;95048.09;107266;1276;22582;-87
2023/11/11 06:10:40;;;;;;;3.10;2.30;;;;;;;8.19;100.00;95051.45;107255;1277;22544;-87
2023/11/11 06:13:07;;;;;;;3.30;2.30;;;;;;;8.25;100.00;95055.73;107150;1277;138181;-87
2023/11/11 06:15:33;;;;;;;4.00;2.80;;;;;;;8.31;100.00;95059.21;106996;1277;23326;-86
2023/11/11 06:17:59;;;;;;;3.40;2.90;;;;;;;8.30;100.00;95065.35;107143;1276;137968;-86
2023/11/11 06:20:25;;;;;;;6.60;5.60;;;;;;;8.32;100.00;95066.18;107257;1275;24050;-87
2023/11/11 06:22:53;;;;;;;7.70;5.90;;;;;;;8.28;100.00;95067.33;107284;1277;24017;-86
2023/11/11 06:25:21;;;;;;;6.80;5.80;;;;;;;8.18;100.00;95068.36;107252;1276;22561;-87
2023/11/11 06:27:48;;;;;;;8.70;6.40;;;;;;;8.13;100.00;95068.91;110388;1276;22191;-87
2023/11/11 06:30:16;;;;;;;6.50;5.30;;;;;;;8.15;100.00;95073.02;110060;1277;138995;-87
2023/11/11 06:32:43;;;;;;;6.20;5.60;;;;;;;8.21;100.00;95069.67;110169;1276;22405;-88
2023/11/11 06:35:12;;;;;;;8.20;5.20;;;;;;;8.27;100.00;95069.02;110020;1275;138479;-87
2023/11/11 06:37:41;;;;;;;5.80;5.20;;;;;;;8.28;100.00;95072.89;110101;1279;23087;-87
2023/11/11 06:40:08;;;;;;;6.80;6.10;;;;;;;8.32;100.00;95071.92;110251;1278;22937;-87
2023/11/11 06:42:38;;;;;;;7.10;5.90;;;;;;;8.33;100.00;95067.55;109242;1276;138966;-86
2023/11/11 06:45:05;;;;;;;7.20;5.70;;;;;;;8.34;100.00;95071.90;107362;1276;22538;-86
2023/11/11 06:47:34;;;;;;;8.50;6.10;;;;;;;8.35;100.00;95071.66;107037;1277;139772;-87
2023/11/11 06:50:00;;;;;;;6.60;5.40;;;;;;;8.38;100.00;95074.56;107205;1276;26284;-87
2023/11/11 06:52:26;;;;;;;8.50;6.70;;;;;;;8.46;100.00;95072.21;107156;1277;25294;-86
2023/11/11 06:54:52;;;;;;;8.00;7.20;;;;;;;8.51;100.00;95070.85;107094;1278;138142;-86
2023/11/11 06:57:19;;;;;;;8.70;7.60;;;;;;;8.50;100.00;95070.54;107101;1278;25374;-87
2023/11/11 06:59:45;;;;;;;8.80;6.70;;;;;;;8.42;100.00;95071.02;110142;1274;138624;-88
2023/11/11 07:02:14;;;;;;;7.50;6.10;;;;;;;8.37;100.00;95074.60;110296;1276;22492;-87
2023/11/11 07:04:40;;;;;;;8.90;7.00;;;;;;;8.36;100.00;95075.59;109860;1276;24739;-87
2023/11/11 07:07:07;;;;;;;8.50;7.50;;;;;;;8.38;100.00;95076.23;107173;1271;138244;-87
2023/11/11 07:09:38;;;;;;;8.70;6.60;;;;;;;8.43;100.00;95071.48;107284;1277;24447;-86
2023/11/11 07:12:05;;;;;;;8.40;7.40;;;;;;;8.40;100.00;95072.64;107242;1262;138658;-86
2023/11/11 07:14:31;;;;;;;8.30;7.40;;;;;;;8.36;100.00;95073.61;107247;1277;25557;-87
2023/11/11 07:16:57;;;;;;;7.90;7.10;;;;;;;8.39;100.00;95074.55;107085;1275;137907;-86
2023/11/11 07:19:23;;;;;;;10.00;8.00;;;;;;;8.43;100.00;95072.95;106971;1278;22603;-87
2023/11/11 07:21:49;;;;;;;11.30;8.40;;;;;;;8.42;100.00;95074.11;107146;1278;25159;-88
2023/11/11 07:24:15;;;;;;;10.00;8.80;;;;;;;8.38;100.00;95071.41;107148;1270;138999;-86
2023/11/11 07:26:41;;;;;;;9.60;8.60;;;;;;;8.33;100.00;95073.04;107224;1277;22534;-87
2023/11/11 07:29:07;;;;;;;12.00;10.40;;;;;;;8.29;100.00;95068.05;107150;1277;139964;-87
2023/11/11 07:31:33;;;;;;;12.70;10.00;;;;;;;8.26;100.00;95072.73;107215;1277;23646;-87
2023/11/11 07:34:00;;;;;;;12.40;9.80;;;;;;;8.26;100.00;95073.80;107272;1276;24266;-87
2023/11/11 07:36:26;;;;;;;145.90;70.20;;;;;;;8.26;100.00;95076.11;107022;1271;138489;-87
2023/11/11 07:38:52;;;;;;;73.80;40.50;;;;;;;8.20;100.00;95072.05;107222;1277;25346;-87
2023/11/11 07:41:19;;;;;;;36.70;24.40;;;;;;;8.19;100.00;95076.32;107171;1277;139278;-87
2023/11/11 07:43:45;;;;;;;30.70;22.80;;;;;;;8.15;100.00;95077.36;107286;1273;23668;-86
2023/11/11 07:46:12;;;;;;;32.70;23.50;;;;;;;8.14;100.00;95076.64;107294;1276;24199;-86
2023/11/11 07:48:38;;;;;;;32.70;23.40;;;;;;;8.16;100.00;95077.64;106972;1256;139842;-87
2023/11/11 07:51:05;;;;;;;36.10;24.00;;;;;;;8.15;100.00;95077.20;107282;1277;22632;-86
2023/11/11 07:53:31;;;;;;;113.00;72.60;;;;;;;8.16;100.00;95077.04;106877;1278;139057;-87
2023/11/11 07:56:01;;;;;;;98.70;65.90;;;;;;;8.13;100.00;95078.27;107160;1275;24329;-86
2023/11/11 07:58:27;;;;;;;97.00;64.30;;;;;;;8.09;100.00;95078.09;107143;1278;22624;-87
2023/11/11 08:00:53;;;;;;;131.80;89.30;;;;;;;8.08;100.00;95077.22;107210;1277;138628;-87
2023/11/11 08:03:20;;;;;;;68.00;49.30;;;;;;;8.02;100.00;95079.54;107227;1276;24370;-87
2023/11/11 08:05:46;;;;;;;45.80;33.70;;;;;;;7.99;100.00;95082.04;107112;1277;139071;-87
2023/11/11 08:08:12;;;;;;;22.60;19.70;;;;;;;7.99;100.00;95080.02;107296;1277;25244;-87
2023/11/11 08:10:39;;;;;;;22.90;19.60;;;;;;;8.02;100.00;95082.52;107150;1277;25271;-87
2023/11/11 08:13:05;;;;;;;36.40;27.70;;;;;;;7.98;100.00;95083.74;107174;1276;139024;-86
2023/11/11 08:15:31;;;;;;;51.50;39.30;;;;;;;7.91;100.00;95081.38;107223;1276;25295;-87
2023/11/11 08:17:57;;;;;;;32.50;23.90;;;;;;;7.81;100.00;95078.83;107166;1277;138713;-87
2023/11/11 08:20:23;;;;;;;25.90;19.90;;;;;;;7.73;100.00;95078.77;107127;1271;22618;-87
2023/11/11 08:22:49;;;;;;;27.70;21.70;;;;;;;7.61;100.00;95081.67;107230;1277;25364;-86
2023/11/11 08:25:15;;;;;;;29.10;23.40;;;;;;;7.52;100.00;95080.26;107176;1272;139152;-87
2023/11/11 08:27:43;;;;;;;28.00;23.10;;;;;;;7.47;100.00;95079.87;107250;1277;22752;-86
2023/11/11 08:30:12;;;;;;;26.00;21.80;;;;;;;7.43;100.00;95077.43;107174;1276;139918;-86
2023/11/11 08:32:42;;;;;;;28.60;22.70;;;;;;;7.43;100.00;95075.72;107232;1271;22569;-87
2023/11/11 08:35:15;;;;;;;25.80;20.50;;;;;;;7.41;100.00;95078.38;107079;1277;139418;-86
2023/11/11 08:37:45;;;;;;;25.40;19.00;;;;;;;7.36;100.00;95077.37;109433;1273;141588;-87
2023/11/11 08:40:12;;;;;;;28.80;22.40;;;;;;;7.27;100.00;95080.83;107240;1276;23143;-87
2023/11/11 08:42:39;;;;;;;30.20;23.10;;;;;;;7.22;100.00;95076.16;107129;1277;139259;-87
2023/11/11 08:45:09;;;;;;;29.00;23.80;;;;;;;7.18;100.00;95078.82;107277;1276;26505;-87
2023/11/11 08:47:37;;;;;;;39.10;27.10;;;;;;;7.17;100.00;95083.23;107159;1277;138604;-87
2023/11/11 08:50:06;;;;;;;35.70;25.50;;;;;;;7.16;100.00;95080.70;107253;1276;22533;-87
2023/11/11 08:52:35;;;;;;;34.40;26.00;;;;;;;7.14;100.00;95082.08;107020;1276;22544;-86
2023/11/11 08:55:01;;;;;;;51.20;33.50;;;;;;;7.13;100.00;95084.06;107119;1276;138487;-86
2023/11/11 08:57:28;;;;;;;37.00;27.90;;;;;;;7.11;100.00;95084.37;107250;1275;23006;-86
2023/11/11 08:59:54;;;;;;;40.10;27.80;;;;;;;7.11;100.00;95084.41;107127;1276;138875;-87
2023/11/11 09:02:19;;;;;;;36.20;28.10;;;;;;;7.11;100.00;95086.20;107246;1277;22537;-87
2023/11/11 09:04:46;;;;;;;34.20;26.90;;;;;;;7.11;100.00;95085.77;107209;1276;22566;-87
2023/11/11 09:07:13;;;;;;;32.30;25.30;;;;;;;7.10;100.00;95088.27;107158;1277;138283;-87
2023/11/11 09:09:38;;;;;;;44.70;33.40;;;;;;;7.05;100.00;95092.58;107280;1277;24241;-86
2023/11/11 09:12:05;;;;;;;43.00;31.50;;;;;;;7.02;100.00;95088.48;107123;1277;138587;-86
2023/11/11 09:14:33;;;;;;;46.30;32.80;;;;;;;7.00;100.00;95087.99;107265;1276;22565;-88
2023/11/11 09:17:01;;;;;;;41.20;30.80;;;;;;;7.02;100.00;95087.24;107121;1277;139484;-86
2023/11/11 09:19:27;;;;;;;42.00;30.20;;;;;;;7.02;100.00;95078.35;107188;1271;25331;-86
2023/11/11 09:21:53;;;;;;;40.60;31.00;;;;;;;6.98;100.00;95084.54;107258;1277;25001;-86
2023/11/11 09:24:20;;;;;;;44.70;32.40;;;;;;;6.96;100.00;95081.08;107116;1277;138319;-87
2023/11/11 09:26:46;;;;;;;48.80;33.00;;;;;;;6.99;100.00;95081.81;107133;1277;22538;-87
2023/11/11 09:29:15;;;;;;;42.90;31.00;;;;;;;7.00;100.00;95081.67;107051;1277;139272;-87
2023/11/11 09:31:43;;;;;;;43.80;32.20;;;;;;;7.00;100.00;95076.89;107291;1277;24374;-86
2023/11/11 09:34:10;;;;;;;45.00;32.40;;;;;;;7.01;100.00;95079.17;109729;1278;22977;-87
2023/11/11 09:36:38;;;;;;;59.90;39.90;;;;;;;7.00;100.00;95080.09;106982;1278;138352;-86
2023/11/11 09:39:06;;;;;;;63.00;40.80;;;;;;;7.01;100.00;95075.72;107146;1271;24261;-86
2023/11/11 09:41:32;;;;;;;56.50;38.40;;;;;;;7.01;100.00;95077.42;107192;1279;139156;-87
2023/11/11 09:43:59;;;;;;;54.70;35.60;;;;;;;7.02;100.00;95074.77;107144;1278;25243;-87
2023/11/11 09:46:25;;;;;;;132.70;75.90;;;;;;;7.02;100.00;95071.98;107109;1278;24183;-87
2023/11/11 09:48:52;;;;;;;143.30;92.40;;;;;;;7.02;100.00;95071.31;107083;1278;139264;-86
2023/11/11 09:51:18;;;;;;;91.00;62.10;;;;;;;7.05;100.00;95066.08;107121;1278;24256;-87
2023/11/11 09:53:44;;;;;;;91.80;55.30;;;;;;;7.07;100.00;95066.08;106992;1277;138869;-86
2023/11/11 09:56:10;;;;;;;79.70;48.30;;;;;;;7.08;100.00;95058.77;106998;1276;22585;-86
2023/11/11 09:58:36;;;;;;;60.80;40.30;;;;;;;7.10;100.00;95058.89;107120;1278;22602;-87
2023/11/11 10:01:02;;;;;;;127.80;74.20;;;;;;;7.12;100.00;95055.36;107000;1278;138971;-87
2023/11/11 10:03:28;;;;;;;137.20;71.20;;;;;;;7.12;100.00;95051.83;107243;1274;25359;-86
2023/11/11 10:05:54;;;;;;;64.30;41.00;;;;;;;7.12;100.00;95050.01;107122;1277;138535;-87
2023/11/11 10:08:24;;;;;;;58.30;39.00;;;;;;;7.06;100.00;95048.40;107323;1270;24319;-86
2023/11/11 10:10:52;;;;;;;54.30;37.60;;;;;;;7.01;100.00;95046.83;107201;1276;22534;-87
2023/11/11 10:13:19;;;;;;;53.50;36.30;;;;;;;6.98;100.00;95044.92;107118;1270;138340;-87
2023/11/11 10:15:45;;;;;;;53.30;37.10;;;;;;;6.96;100.00;95043.45;107263;1277;22550;-87
2023/11/11 10:18:14;;;;;;;92.00;51.40;;;;;;;6.97;100.00;95043.41;107014;1277;138642;-87
2023/11/11 10:20:47;;;;;;;97.40;55.80;;;;;;;7.00;100.00;95042.27;108921;1274;24249;-87
2023/11/11 10:23:15;;;;;;;77.10;47.70;;;;;;;7.00;100.00;95040.51;106881;1277;139562;-86
2023/11/11 10:25:42;;;;;;;59.50;42.60;;;;;;;7.01;100.00;95038.89;107295;1276;22524;-87
2023/11/11 10:28:14;;;;;;;59.90;42.50;;;;;;;7.03;100.00;95039.33;107194;1276;22534;-87
2023/11/11 10:30:40;;;;;;;59.10;40.20;;;;;;;7.05;100.00;95035.20;106983;1277;138932;-87
2023/11/11 10:33:07;;;;;;;63.50;42.20;;;;;;;7.06;100.00;95032.23;107184;1277;25390;-87
2023/11/11 10:35:33;;;;;;;51.40;35.20;;;;;;;7.02;100.00;95031.98;107105;1271;138711;-87
2023/11/11 10:38:00;;;;;;;40.50;29.90;;;;;;;6.98;100.00;95029.83;107264;1270;24227;-86
2023/11/11 10:40:26;;;;;;;49.10;31.30;;;;;;;6.96;100.00;95027.77;107222;1276;24421;-86
2023/11/11 10:42:52;;;;;;;55.20;36.40;;;;;;;6.95;100.00;95028.27;107198;1275;138467;-86
2023/11/11 10:45:18;;;;;;;46.00;34.00;;;;;;;6.96;100.00;95024.70;107221;1274;22776;-85
2023/11/11 10:47:46;;;;;;;42.10;30.10;;;;;;;6.94;100.00;95024.94;107139;1272;138371;-87
2023/11/11 10:50:14;;;;;;;41.70;31.30;;;;;;;6.93;100.00;95022.43;107118;1278;22545;-86
2023/11/11 10:52:41;;;;;;;40.80;30.20;;;;;;;6.94;100.00;95019.54;107265;1277;25488;-87
2023/11/11 10:55:08;;;;;;;33.20;25.20;;;;;;;6.95;100.00;95018.89;106862;1277;138750;-86
2023/11/11 10:57:35;;;;;;;34.10;26.40;;;;;;;6.93;100.00;95017.27;107120;1277;24259;-87
2023/11/11 11:00:01;;;;;;;35.00;25.50;;;;;;;6.91;100.00;95018.65;107033;1278;138415;-86
2023/11/11 11:02:27;;;;;;;34.00;25.70;;;;;;;6.92;100.00;95021.28;107261;1277;22570;-86
2023/11/11 11:04:58;;;;;;;44.00;32.30;;;;;;;6.91;100.00;95022.31;107292;1270;24279;-87
2023/11/11 11:07:33;;;;;;;36.50;28.10;;;;;;;6.94;100.00;95021.20;107132;1278;26325;-87
2023/11/11 11:10:03;;;;;;;44.50;32.40;;;;;;;6.96;100.00;95020.25;107077;1275;22774;-86
2023/11/11 11:12:45;;;;;;;42.50;30.60;;;;;;;6.94;100.00;95021.48;107064;1277;138413;-86
2023/11/11 11:15:13;;;;;;;44.30;31.50;;;;;;;6.94;100.00;95019.38;110349;1274;22372;-87